Terminal Aerodrome Forecast
Issued by NWS

Home | Current Version | Previous Version | Text Only | Print | Product List | Glossary On
Versions: 1 2 3 4 5 6 7 8 9 10 11 12 13 14 15
000
FTUS45 KABQ 250532
TAFTCC
TAF
KTCC 250532Z 2506/2606 24008KT P6SM SKC
     FM251600 25015G25KT P6SM FEW150
     FM251900 26025G38KT P6SM SCT150
     FM260200 25012G20KT P6SM SCT150=

USA.gov is the U.S. government's official web portal to all federal, state and local government web resources and services.